Time;durP1;ratioP1;P1;durP2;ratioP2;P2;SDS_P1;SDS_P2;PMS_P1;PMS_P2;Temp;Humidity;BMP_temperature;BMP_pressure;BME280_temperature;BME280_humidity;BME280_pressure;Samples;Min_cycle;Max_cycle;Signal;HPM_P1;HPM_P2
2022/08/09 00:00:24;;;;;;;4.82;4.00;;;;;;;;;;10243938;28;20420;-87
2022/08/09 00:05:26;;;;;;;4.30;3.90;;;;;;;;;;10244284;29;20913;-87
2022/08/09 00:10:30;;;;;;;4.20;3.80;;;;;;;;;;10244137;28;20975;-87
2022/08/09 00:15:32;;;;;;;4.70;4.00;;;;;;;;;;10244072;29;20526;-87
2022/08/09 00:20:33;;;;;;;4.18;3.85;;;;;;;;;;10239871;29;20951;-87
2022/08/09 00:25:37;;;;;;;5.43;3.77;;;;;;;;;;10243032;28;20784;-87
2022/08/09 00:30:38;;;;;;;4.25;3.85;;;;;;;;;;10243872;29;20845;-87
2022/08/09 00:35:40;;;;;;;3.90;3.50;;;;;;;;;;10243091;29;20800;-87
2022/08/09 00:40:44;;;;;;;5.47;4.37;;;;;;;;;;10242576;28;20483;-87
2022/08/09 00:45:47;;;;;;;5.25;4.03;;;;;;;;;;10243523;29;20428;-87
2022/08/09 00:50:48;;;;;;;5.07;4.07;;;;;;;;;;10242840;29;20515;-87
2022/08/09 00:55:52;;;;;;;5.88;4.60;;;;;;;;;;10241791;28;20450;-87
2022/08/09 01:00:56;;;;;;;4.93;4.43;;;;;;;;;;10241959;29;20522;-86
2022/08/09 01:06:05;;;;;;;4.85;4.43;;;;;;;;;;10241804;29;20443;-87
2022/08/09 01:11:22;;;;;;;4.70;4.30;;;;;;;;;;10238229;28;20508;-87
2022/08/09 01:16:30;;;;;;;5.90;4.35;;;;;;;;;;10241445;29;20847;-87
2022/08/09 01:21:44;;;;;;;6.10;4.45;;;;;;;;;;10241777;29;20475;-86
2022/08/09 01:27:05;;;;;;;5.33;4.70;;;;;;;;;;10239863;28;20994;-87
2022/08/09 01:32:12;;;;;;;6.03;4.55;;;;;;;;;;10235875;29;20440;-87
2022/08/09 01:37:16;;;;;;;8.32;4.38;;;;;;;;;;10241249;29;20424;-87
2022/08/09 01:42:20;;;;;;;4.97;4.47;;;;;;;;;;10240880;28;20907;-87
2022/08/09 01:47:24;;;;;;;4.80;4.22;;;;;;;;;;10240731;29;20508;-87
2022/08/09 01:52:27;;;;;;;5.93;4.57;;;;;;;;;;10240124;28;20522;-87
2022/08/09 01:57:36;;;;;;;5.00;4.60;;;;;;;;;;10240297;28;20424;-87
2022/08/09 02:02:42;;;;;;;5.83;4.50;;;;;;;;;;10240309;29;20443;-86
2022/08/09 02:07:46;;;;;;;5.20;4.40;;;;;;;;;;10240036;29;20859;-86
2022/08/09 02:12:50;;;;;;;5.10;4.60;;;;;;;;;;10240242;28;20432;-87
2022/08/09 02:17:54;;;;;;;5.07;4.60;;;;;;;;;;10240276;29;20435;-86
2022/08/09 02:23:04;;;;;;;5.70;4.93;;;;;;;;;;10241921;28;20498;-87
2022/08/09 02:28:12;;;;;;;5.20;4.70;;;;;;;;;;10246794;28;20412;-87
2022/08/09 02:33:17;;;;;;;5.50;5.00;;;;;;;;;;10249947;29;20408;-87
2022/08/09 02:38:26;;;;;;;5.72;4.80;;;;;;;;;;10249616;29;20432;-87
2022/08/09 02:43:31;;;;;;;5.10;4.60;;;;;;;;;;10249433;28;20494;-86
2022/08/09 02:48:36;;;;;;;5.55;4.90;;;;;;;;;;10249465;29;20416;-87
2022/08/09 02:53:44;;;;;;;5.50;5.00;;;;;;;;;;10249197;28;20483;-87
2022/08/09 02:58:49;;;;;;;5.60;5.10;;;;;;;;;;10248711;28;20435;-87
2022/08/09 03:03:52;;;;;;;6.85;5.50;;;;;;;;;;10266356;23;20423;-88
2022/08/09 03:08:55;;;;;;;6.55;5.03;;;;;;;;;;10249835;28;20499;-88
2022/08/09 03:14:01;;;;;;;7.97;5.43;;;;;;;;;;10250077;29;20408;-88
2022/08/09 03:19:04;;;;;;;6.57;5.18;;;;;;;;;;10245768;29;20996;-88
2022/08/09 03:24:06;;;;;;;6.22;5.53;;;;;;;;;;10249705;28;20416;-88
2022/08/09 03:29:09;;;;;;;6.43;4.95;;;;;;;;;;10250438;29;20416;-88
2022/08/09 03:34:12;;;;;;;5.83;4.77;;;;;;;;;;10249355;28;20822;-88
2022/08/09 03:39:14;;;;;;;6.87;4.40;;;;;;;;;;10248696;28;20422;-88
2022/08/09 03:44:17;;;;;;;5.35;4.72;;;;;;;;;;10248229;29;20491;-88
2022/08/09 03:49:21;;;;;;;5.65;4.65;;;;;;;;;;10248462;29;20412;-88
2022/08/09 03:54:25;;;;;;;4.30;3.90;;;;;;;;;;10248352;28;20419;-87
2022/08/09 03:59:29;;;;;;;6.03;4.10;;;;;;;;;;10251660;29;20770;-88
2022/08/09 04:04:33;;;;;;;5.97;3.90;;;;;;;;;;10247447;29;20491;-87
2022/08/09 04:09:36;;;;;;;3.72;3.42;;;;;;;;;;10243690;28;20507;-88
2022/08/09 04:14:40;;;;;;;5.07;3.80;;;;;;;;;;10247241;29;20419;-88
2022/08/09 04:19:42;;;;;;;4.40;4.00;;;;;;;;;;10247862;29;20515;-88
2022/08/09 04:24:43;;;;;;;4.70;3.60;;;;;;;;;;10247348;28;20874;-88
2022/08/09 04:29:47;;;;;;;5.90;4.05;;;;;;;;;;10247156;29;20412;-87
2022/08/09 04:34:49;;;;;;;4.87;4.10;;;;;;;;;;10245951;29;20503;-87
2022/08/09 04:39:50;;;;;;;4.67;3.93;;;;;;;;;;10246440;28;20430;-88
2022/08/09 04:44:54;;;;;;;4.73;4.23;;;;;;;;;;10246605;29;20487;-88
2022/08/09 04:49:56;;;;;;;4.90;4.23;;;;;;;;;;10245597;28;20904;-89
2022/08/09 04:54:59;;;;;;;5.55;4.22;;;;;;;;;;10245970;28;20952;-88
2022/08/09 05:00:05;;;;;;;5.63;4.40;;;;;;;;;;10245110;29;20412;-88
2022/08/09 05:05:07;;;;;;;5.80;4.40;;;;;;;;;;10241872;29;20893;-88
2022/08/09 05:10:11;;;;;;;5.97;4.20;;;;;;;;;;10244688;28;20455;-88
2022/08/09 05:15:15;;;;;;;5.03;4.43;;;;;;;;;;10244789;29;20487;-88
2022/08/09 05:20:16;;;;;;;5.82;4.47;;;;;;;;;;10244432;29;20438;-88
2022/08/09 05:25:18;;;;;;;5.28;4.22;;;;;;;;;;10244317;28;20408;-88
2022/08/09 05:30:22;;;;;;;5.10;4.20;;;;;;;;;;10244608;29;20483;-88
2022/08/09 05:35:24;;;;;;;4.47;4.07;;;;;;;;;;10243775;29;20457;-88
2022/08/09 05:40:27;;;;;;;6.78;3.60;;;;;;;;;;10244224;28;20419;-88
2022/08/09 05:45:30;;;;;;;6.07;3.20;;;;;;;;;;10244463;29;20415;-88
2022/08/09 05:50:32;;;;;;;4.05;3.10;;;;;;;;;;10243395;29;20499;-88
2022/08/09 05:55:34;;;;;;;3.90;2.97;;;;;;;;;;10239856;28;20428;-88
2022/08/09 06:00:37;;;;;;;3.97;2.97;;;;;;;;;;10242755;28;20440;-88
2022/08/09 06:05:39;;;;;;;4.00;2.80;;;;;;;;;;10244007;29;20499;-88
2022/08/09 06:10:41;;;;;;;6.87;3.00;;;;;;;;;;10243216;28;20742;-88
2022/08/09 06:15:44;;;;;;;3.93;3.50;;;;;;;;;;10256434;29;20451;-88
2022/08/09 06:20:46;;;;;;;4.22;3.45;;;;;;;;;;10247714;29;20531;-87
2022/08/09 06:25:48;;;;;;;4.43;3.03;;;;;;;;;;10242793;28;20412;-87
2022/08/09 06:30:51;;;;;;;4.47;3.27;;;;;;;;;;10242737;29;20426;-88
2022/08/09 06:35:53;;;;;;;5.43;3.20;;;;;;;;;;10242588;29;20439;-87
2022/08/09 06:40:55;;;;;;;4.60;3.63;;;;;;;;;;10242375;28;20426;-87
2022/08/09 06:45:58;;;;;;;3.63;3.22;;;;;;;;;;10241756;29;20404;-87
2022/08/09 06:51:00;;;;;;;4.53;3.30;;;;;;;;;;10242543;29;20444;-87
2022/08/09 06:56:02;;;;;;;6.00;3.65;;;;;;;;;;10241399;28;20514;-87
2022/08/09 07:01:06;;;;;;;4.93;3.70;;;;;;;;;;10241881;29;20412;-87
2022/08/09 07:06:08;;;;;;;4.80;3.80;;;;;;;;;;10241784;29;20853;-88
2022/08/09 07:11:09;;;;;;;4.55;3.88;;;;;;;;;;10243844;28;20426;-85
2022/08/09 07:16:13;;;;;;;5.40;3.70;;;;;;;;;;10248574;29;20428;-86
2022/08/09 07:21:14;;;;;;;4.63;3.67;;;;;;;;;;10248778;29;20486;-87
2022/08/09 07:26:16;;;;;;;5.60;3.80;;;;;;;;;;10248439;28;20423;-87
2022/08/09 07:31:20;;;;;;;3.70;3.25;;;;;;;;;;10248266;29;20889;-87
2022/08/09 07:36:21;;;;;;;4.27;3.37;;;;;;;;;;10247576;28;20420;-87
2022/08/09 07:41:23;;;;;;;3.92;3.53;;;;;;;;;;10247742;28;20499;-87
2022/08/09 07:46:26;;;;;;;3.47;3.17;;;;;;;;;;10247622;29;20511;-86
2022/08/09 07:51:28;;;;;;;3.45;3.13;;;;;;;;;;10247942;28;20423;-87
2022/08/09 07:56:32;;;;;;;3.65;3.25;;;;;;;;;;10247462;28;20420;-87
2022/08/09 08:01:38;;;;;;;3.60;3.30;;;;;;;;;;10243239;29;20532;-87
2022/08/09 08:06:40;;;;;;;3.30;3.00;;;;;;;;;;10247109;28;20932;-87
2022/08/09 08:11:41;;;;;;;3.58;2.83;;;;;;;;;;10246816;28;20542;-87
2022/08/09 08:16:45;;;;;;;3.73;3.40;;;;;;;;;;10246704;29;20424;-87
2022/08/09 08:21:49;;;;;;;3.20;2.90;;;;;;;;;;10246592;28;20691;-86
2022/08/09 08:26:50;;;;;;;3.50;3.10;;;;;;;;;;10245795;28;20427;-87
2022/08/09 08:31:54;;;;;;;3.50;3.20;;;;;;;;;;10246093;29;20491;-87
2022/08/09 08:36:56;;;;;;;4.75;2.90;;;;;;;;;;10245676;29;20478;-87
2022/08/09 08:41:58;;;;;;;4.00;3.37;;;;;;;;;;10245690;28;20451;-87
2022/08/09 08:47:01;;;;;;;4.50;3.10;;;;;;;;;;10245326;29;20788;-87
2022/08/09 08:52:03;;;;;;;3.50;3.20;;;;;;;;;;10249253;29;20495;-87
2022/08/09 08:57:05;;;;;;;4.90;3.20;;;;;;;;;;10260555;28;20933;-87
2022/08/09 09:02:18;;;;;;;3.70;3.40;;;;;;;;;;10251037;29;20461;-87
2022/08/09 09:07:20;;;;;;;3.27;2.97;;;;;;;;;;10244604;29;20418;-87
2022/08/09 09:12:25;;;;;;;4.65;2.97;;;;;;;;;;10244037;29;20487;-87
2022/08/09 09:17:29;;;;;;;4.78;2.88;;;;;;;;;;10244077;29;20428;-87
2022/08/09 09:22:49;;;;;;;3.40;3.10;;;;;;;;;;10243906;29;20455;-87
2022/08/09 09:27:56;;;;;;;4.63;3.15;;;;;;;;;;10242062;28;20479;-88
2022/08/09 09:33:04;;;;;;;4.25;3.17;;;;;;;;;;10243624;28;20420;-87
2022/08/09 09:38:06;;;;;;;3.50;3.17;;;;;;;;;;10239766;29;20431;-87
2022/08/09 09:43:08;;;;;;;13.13;3.65;;;;;;;;;;10242885;29;20424;-87
2022/08/09 09:48:11;;;;;;;3.30;3.10;;;;;;;;;;10243790;29;20495;-87
2022/08/09 09:53:18;;;;;;;3.60;3.10;;;;;;;;;;10243404;28;20570;-86
2022/08/09 09:58:20;;;;;;;3.13;2.90;;;;;;;;;;10254085;29;20971;-87
2022/08/09 10:03:44;;;;;;;3.42;3.13;;;;;;;;;;10247109;29;20451;-87
2022/08/09 10:08:49;;;;;;;4.43;3.07;;;;;;;;;;10234028;29;20408;-87
2022/08/09 10:13:52;;;;;;;3.75;3.00;;;;;;;;;;10242610;28;20511;-87
2022/08/09 10:18:57;;;;;;;3.08;2.80;;;;;;;;;;10242274;29;20516;-87
2022/08/09 10:24:01;;;;;;;2.90;2.60;;;;;;;;;;10241961;28;20455;-87
2022/08/09 10:29:03;;;;;;;3.10;2.90;;;;;;;;;;10242303;29;20446;-87
2022/08/09 10:34:07;;;;;;;2.63;2.42;;;;;;;;;;10237963;29;20967;-87
2022/08/09 10:39:09;;;;;;;3.22;2.53;;;;;;;;;;10241442;28;20530;-87
2022/08/09 10:44:12;;;;;;;2.55;2.35;;;;;;;;;;10242275;28;20495;-87
2022/08/09 10:49:24;;;;;;;2.80;2.58;;;;;;;;;;10249477;29;20484;-87
2022/08/09 10:54:26;;;;;;;2.90;2.22;;;;;;;;;;10248728;28;20503;-88
2022/08/09 10:59:30;;;;;;;5.03;2.17;;;;;;;;;;10248977;29;20434;-88
2022/08/09 11:04:33;;;;;;;3.60;2.40;;;;;;;;;;10248709;29;20451;-87
2022/08/09 11:09:50;;;;;;;3.65;2.40;;;;;;;;;;10244553;28;20420;-88
2022/08/09 11:14:54;;;;;;;2.40;2.20;;;;;;;;;;10249203;29;20438;-87
2022/08/09 11:20:00;;;;;;;2.75;2.20;;;;;;;;;;10250422;29;20498;-87
2022/08/09 11:25:07;;;;;;;2.60;2.10;;;;;;;;;;10248539;28;20419;-88
2022/08/09 11:30:11;;;;;;;2.35;2.13;;;;;;;;;;10244484;29;20813;-88
2022/08/09 11:35:20;;;;;;;2.50;2.30;;;;;;;;;;10247556;29;20408;-88
2022/08/09 11:40:29;;;;;;;2.42;2.22;;;;;;;;;;10247174;28;20432;-88
2022/08/09 11:45:37;;;;;;;2.30;2.10;;;;;;;;;;10239705;29;20404;-88
2022/08/09 11:51:02;;;;;;;2.65;2.05;;;;;;;;;;10247829;28;20503;-88
2022/08/09 11:56:25;;;;;;;3.60;2.30;;;;;;;;;;10242498;28;20416;-87
2022/08/09 12:01:36;;;;;;;2.40;2.20;;;;;;;;;;10246827;29;20868;-86
2022/08/09 12:06:39;;;;;;;2.25;2.10;;;;;;;;;;10236691;29;20411;-88
2022/08/09 12:11:41;;;;;;;2.30;2.00;;;;;;;;;;10245809;28;20408;-88
2022/08/09 12:16:43;;;;;;;2.40;2.20;;;;;;;;;;10246323;29;20428;-87
2022/08/09 12:21:50;;;;;;;2.10;2.00;;;;;;;;;;10246100;29;20499;-87
2022/08/09 12:26:55;;;;;;;3.50;2.10;;;;;;;;;;10245783;28;20434;-88
2022/08/09 12:32:02;;;;;;;2.22;2.05;;;;;;;;;;10245841;29;20466;-88
2022/08/09 12:37:10;;;;;;;2.20;2.00;;;;;;;;;;10240901;29;20527;-88
2022/08/09 12:42:13;;;;;;;2.83;2.20;;;;;;;;;;10245169;28;20900;-88
2022/08/09 12:47:17;;;;;;;2.20;1.98;;;;;;;;;;10244798;29;20415;-88
2022/08/09 12:52:20;;;;;;;2.63;2.05;;;;;;;;;;10244597;28;20431;-88
2022/08/09 12:57:36;;;;;;;3.07;2.37;;;;;;;;;;10244891;28;20499;-88
2022/08/09 13:02:49;;;;;;;2.05;1.90;;;;;;;;;;10240817;29;20999;-87
2022/08/09 13:08:14;;;;;;;2.90;2.20;;;;;;;;;;10243496;28;20420;-88
2022/08/09 13:13:26;;;;;;;2.38;2.17;;;;;;;;;;10241744;28;20438;-88
2022/08/09 13:18:30;;;;;;;2.30;2.10;;;;;;;;;;10244186;29;20451;-87
2022/08/09 13:23:42;;;;;;;2.30;2.10;;;;;;;;;;10236190;28;20448;-88
2022/08/09 13:29:05;;;;;;;2.00;1.80;;;;;;;;;;10241538;28;20441;-87
2022/08/09 13:34:07;;;;;;;2.25;2.05;;;;;;;;;;10243546;29;20500;-87
2022/08/09 13:39:10;;;;;;;3.97;2.15;;;;;;;;;;10245814;28;20427;-88
2022/08/09 13:44:12;;;;;;;2.10;1.90;;;;;;;;;;10253172;29;20415;-87
2022/08/09 13:49:14;;;;;;;2.03;1.90;;;;;;;;;;10243406;29;20412;-88
2022/08/09 13:54:17;;;;;;;3.20;1.90;;;;;;;;;;10242499;28;20438;-87
2022/08/09 13:59:19;;;;;;;2.70;1.90;;;;;;;;;;10240673;29;20758;-87
2022/08/09 14:04:21;;;;;;;3.10;2.10;;;;;;;;;;10242320;29;20416;-87
2022/08/09 14:09:25;;;;;;;2.22;1.75;;;;;;;;;;10242201;28;20426;-87
2022/08/09 14:14:28;;;;;;;2.20;2.00;;;;;;;;;;10242387;29;20691;-87
2022/08/09 14:19:29;;;;;;;2.10;1.90;;;;;;;;;;10244151;28;20430;-88
2022/08/09 14:24:32;;;;;;;2.30;1.73;;;;;;;;;;10250589;28;20412;-87
2022/08/09 14:29:34;;;;;;;2.63;1.87;;;;;;;;;;10250582;29;20422;-87
2022/08/09 14:34:36;;;;;;;4.00;1.90;;;;;;;;;;10246617;29;20447;-88
2022/08/09 14:39:41;;;;;;;2.53;2.27;;;;;;;;;;10250147;28;20430;-87
2022/08/09 14:44:42;;;;;;;2.70;1.80;;;;;;;;;;10249941;29;20422;-87
2022/08/09 14:49:44;;;;;;;3.90;2.17;;;;;;;;;;10250461;29;20745;-88
2022/08/09 14:54:47;;;;;;;3.43;2.07;;;;;;;;;;10252067;28;20447;-88
2022/08/09 14:59:49;;;;;;;1.88;1.77;;;;;;;;;;10250415;29;20496;-88
2022/08/09 15:04:51;;;;;;;2.55;2.00;;;;;;;;;;10249820;29;20502;-87
2022/08/09 15:09:54;;;;;;;3.45;1.70;;;;;;;;;;10248830;28;20511;-87
2022/08/09 15:14:56;;;;;;;2.27;1.90;;;;;;;;;;10249008;29;20499;-87
2022/08/09 15:19:58;;;;;;;2.93;2.10;;;;;;;;;;10248677;29;20908;-87
2022/08/09 15:25:01;;;;;;;2.23;1.90;;;;;;;;;;10248394;28;20931;-87
2022/08/09 15:30:03;;;;;;;2.65;2.28;;;;;;;;;;10248710;28;20424;-88
2022/08/09 15:35:07;;;;;;;2.25;2.05;;;;;;;;;;10244279;29;20495;-87
2022/08/09 15:40:12;;;;;;;2.47;1.98;;;;;;;;;;10247919;28;20436;-87
2022/08/09 15:45:16;;;;;;;5.30;2.03;;;;;;;;;;10248181;29;20956;-88
2022/08/09 15:50:19;;;;;;;2.80;2.00;;;;;;;;;;10247678;29;20837;-88
2022/08/09 15:55:22;;;;;;;3.23;2.10;;;;;;;;;;10273606;28;20427;-87
2022/08/09 16:00:25;;;;;;;3.47;1.80;;;;;;;;;;10275771;29;20436;-88
2022/08/09 16:05:29;;;;;;;2.50;2.15;;;;;;;;;;10247415;29;20423;-87
2022/08/09 16:10:33;;;;;;;2.70;2.00;;;;;;;;;;10246779;28;20917;-87
2022/08/09 16:15:35;;;;;;;2.90;1.92;;;;;;;;;;10243065;29;20438;-87
2022/08/09 16:20:37;;;;;;;2.60;2.00;;;;;;;;;;10246364;29;20432;-87
2022/08/09 16:25:40;;;;;;;3.60;2.28;;;;;;;;;;10246760;28;20424;-88
2022/08/09 16:30:42;;;;;;;2.90;2.20;;;;;;;;;;10246225;29;20418;-88
2022/08/09 16:35:46;;;;;;;2.95;2.00;;;;;;;;;;10247146;29;20408;-89
2022/08/09 16:40:49;;;;;;;2.92;2.10;;;;;;;;;;10245336;28;20428;-88
2022/08/09 16:45:51;;;;;;;2.53;2.10;;;;;;;;;;10245512;28;20420;-88
2022/08/09 16:50:53;;;;;;;2.50;2.03;;;;;;;;;;10245735;29;20502;-88
2022/08/09 16:55:56;;;;;;;4.37;2.20;;;;;;;;;;10244813;28;20494;-88
2022/08/09 17:00:58;;;;;;;2.80;1.90;;;;;;;;;;10245261;29;20424;-88
2022/08/09 17:06:00;;;;;;;2.40;2.17;;;;;;;;;;10246986;29;20495;-88
2022/08/09 17:11:03;;;;;;;2.58;2.22;;;;;;;;;;10247461;28;20412;-87
2022/08/09 17:16:05;;;;;;;4.00;2.72;;;;;;;;;;10248046;29;20495;-90
2022/08/09 17:21:07;;;;;;;2.60;2.20;;;;;;;;;;10243610;29;20439;-87
2022/08/09 17:26:10;;;;;;;2.55;1.98;;;;;;;;;;10245992;28;20780;-88
2022/08/09 17:31:12;;;;;;;3.50;2.20;;;;;;;;;;10243843;29;20508;-89
2022/08/09 17:36:14;;;;;;;3.47;2.20;;;;;;;;;;10243710;29;20494;-88
2022/08/09 17:41:17;;;;;;;4.47;2.20;;;;;;;;;;10243536;28;20539;-89
2022/08/09 17:46:19;;;;;;;3.70;2.22;;;;;;;;;;10243428;29;20507;-89
2022/08/09 17:51:21;;;;;;;3.65;2.20;;;;;;;;;;10243576;29;20435;-88
2022/08/09 17:56:26;;;;;;;4.77;2.30;;;;;;;;;;10243087;28;20507;-89
2022/08/09 18:01:29;;;;;;;4.05;2.20;;;;;;;;;;10243180;28;20438;-89
2022/08/09 18:06:31;;;;;;;4.13;2.20;;;;;;;;;;10242724;28;20579;-89
2022/08/09 18:11:35;;;;;;;4.88;2.30;;;;;;;;;;10242765;28;20424;-88
2022/08/09 18:16:37;;;;;;;3.50;2.28;;;;;;;;;;10239620;29;20404;-89
2022/08/09 18:21:39;;;;;;;4.53;2.20;;;;;;;;;;10243232;29;20691;-89
2022/08/09 18:26:44;;;;;;;3.13;2.10;;;;;;;;;;10243474;28;20412;-89
2022/08/09 18:31:46;;;;;;;3.88;2.28;;;;;;;;;;10246862;29;20983;-89
2022/08/09 18:36:48;;;;;;;5.13;2.77;;;;;;;;;;10245082;28;20962;-89
2022/08/09 18:41:51;;;;;;;5.85;2.45;;;;;;;;;;10242713;28;20837;-88
2022/08/09 18:46:53;;;;;;;4.13;2.55;;;;;;;;;;10243379;29;20518;-89
2022/08/09 18:51:55;;;;;;;3.00;2.45;;;;;;;;;;10242756;29;20686;-89
2022/08/09 18:56:58;;;;;;;3.50;2.60;;;;;;;;;;10242215;28;20420;-88
2022/08/09 19:02:00;;;;;;;3.85;2.50;;;;;;;;;;10242192;29;20508;-90
2022/08/09 19:07:02;;;;;;;3.85;2.42;;;;;;;;;;10244622;28;20412;-89
2022/08/09 19:12:08;;;;;;;4.43;2.35;;;;;;;;;;10249649;28;20506;-89
2022/08/09 19:17:09;;;;;;;2.53;2.25;;;;;;;;;;10245531;29;20416;-89
2022/08/09 19:22:11;;;;;;;5.22;2.90;;;;;;;;;;10248713;28;20420;-88
2022/08/09 19:27:15;;;;;;;8.25;6.93;;;;;;;;;;10248765;28;20925;-89
2022/08/09 19:32:17;;;;;;;10.50;8.48;;;;;;;;;;10248599;29;20844;-89
2022/08/09 19:37:19;;;;;;;7.88;5.05;;;;;;;;;;10248925;29;20491;-89
2022/08/09 19:42:22;;;;;;;6.78;4.28;;;;;;;;;;10248137;28;20426;-89
2022/08/09 19:47:24;;;;;;;6.40;4.45;;;;;;;;;;10248363;29;20423;-89
2022/08/09 19:52:26;;;;;;;8.30;5.90;;;;;;;;;;10247986;29;20492;-89
2022/08/09 19:57:29;;;;;;;5.97;3.15;;;;;;;;;;10247720;28;20435;-89
2022/08/09 20:02:31;;;;;;;3.95;3.45;;;;;;;;;;10247644;29;20424;-88
2022/08/09 20:07:33;;;;;;;4.90;3.30;;;;;;;;;;10247170;29;20897;-89
2022/08/09 20:12:36;;;;;;;5.22;3.53;;;;;;;;;;10247023;28;20420;-88
2022/08/09 20:17:38;;;;;;;6.55;4.05;;;;;;;;;;10242989;28;20412;-89
2022/08/09 20:22:40;;;;;;;5.82;3.70;;;;;;;;;;10250517;28;20428;-88
2022/08/09 20:27:43;;;;;;;4.97;3.20;;;;;;;;;;10252162;28;20431;-89
2022/08/09 20:32:45;;;;;;;5.90;3.78;;;;;;;;;;10252363;29;20483;-88
2022/08/09 20:37:47;;;;;;;6.85;4.20;;;;;;;;;;10252249;28;20491;-88
2022/08/09 20:42:50;;;;;;;9.15;4.07;;;;;;;;;;10250405;28;20458;-89
2022/08/09 20:47:52;;;;;;;6.18;4.00;;;;;;;;;;10247943;29;20908;-89
2022/08/09 20:52:54;;;;;;;4.60;4.13;;;;;;;;;;10247860;28;20491;-88
2022/08/09 20:57:57;;;;;;;4.55;3.78;;;;;;;;;;10247419;28;20448;-88
2022/08/09 21:02:59;;;;;;;8.13;3.75;;;;;;;;;;10247383;29;20535;-88
2022/08/09 21:08:01;;;;;;;7.00;3.70;;;;;;;;;;10251136;29;20412;-88
2022/08/09 21:13:04;;;;;;;6.83;3.50;;;;;;;;;;10257115;28;20416;-88
2022/08/09 21:18:06;;;;;;;6.30;3.60;;;;;;;;;;10247584;29;20495;-88
2022/08/09 21:23:08;;;;;;;6.13;3.40;;;;;;;;;;10246052;28;20593;-78
2022/08/09 21:28:11;;;;;;;7.00;3.40;;;;;;;;;;10234107;28;20785;-87
2022/08/09 21:33:13;;;;;;;3.90;2.97;;;;;;;;;;10234905;29;20475;-87
2022/08/09 21:38:15;;;;;;;4.60;2.80;;;;;;;;;;10240343;28;20503;-87
2022/08/09 21:43:19;;;;;;;6.10;2.72;;;;;;;;;;10244207;28;20427;-85
2022/08/09 21:48:20;;;;;;;7.93;2.92;;;;;;;;;;10242338;29;20495;-84
2022/08/09 21:53:22;;;;;;;3.83;2.75;;;;;;;;;;10245812;28;20422;-83
2022/08/09 21:58:26;;;;;;;3.10;2.80;;;;;;;;;;10239243;28;20436;-85
2022/08/09 22:03:27;;;;;;;6.07;2.80;;;;;;;;;;10243846;29;20500;-85
2022/08/09 22:08:29;;;;;;;5.10;2.87;;;;;;;;;;10238013;29;20479;-85
2022/08/09 22:13:33;;;;;;;5.40;2.72;;;;;;;;;;10240952;28;20507;-85
2022/08/09 22:18:35;;;;;;;5.40;2.55;;;;;;;;;;10245283;29;20419;-84
2022/08/09 22:23:37;;;;;;;2.60;2.40;;;;;;;;;;10241094;28;20412;-84
2022/08/09 22:28:40;;;;;;;3.75;2.50;;;;;;;;;;10244393;28;20404;-84
2022/08/09 22:33:42;;;;;;;4.22;2.30;;;;;;;;;;10244419;29;20904;-84
2022/08/09 22:38:44;;;;;;;3.45;2.15;;;;;;;;;;10244546;29;20483;-84
2022/08/09 22:43:48;;;;;;;3.00;2.30;;;;;;;;;;10250987;28;20503;-85
2022/08/09 22:48:50;;;;;;;6.70;2.65;;;;;;;;;;10252312;29;20491;-84
2022/08/09 22:53:51;;;;;;;2.58;2.17;;;;;;;;;;10252402;29;20483;-84
2022/08/09 22:58:55;;;;;;;3.17;2.35;;;;;;;;;;10251785;28;20506;-84
2022/08/09 23:03:56;;;;;;;3.28;2.20;;;;;;;;;;10251154;29;20495;-84
2022/08/09 23:08:58;;;;;;;3.20;2.10;;;;;;;;;;10251244;28;20495;-84
2022/08/09 23:14:02;;;;;;;2.70;2.20;;;;;;;;;;10251372;29;20515;-84
2022/08/09 23:19:04;;;;;;;4.10;2.05;;;;;;;;;;10251330;29;20434;-84
2022/08/09 23:24:06;;;;;;;3.65;2.22;;;;;;;;;;10246130;28;20691;-84
2022/08/09 23:29:12;;;;;;;2.78;2.00;;;;;;;;;;10246930;29;20416;-84
2022/08/09 23:34:14;;;;;;;4.60;2.53;;;;;;;;;;10249964;29;20416;-84
2022/08/09 23:39:16;;;;;;;3.10;2.47;;;;;;;;;;10249874;28;20420;-84
2022/08/09 23:44:19;;;;;;;4.10;2.70;;;;;;;;;;10250118;29;20903;-84
2022/08/09 23:49:21;;;;;;;3.83;2.22;;;;;;;;;;10250228;29;20504;-84
2022/08/09 23:54:23;;;;;;;3.00;2.50;;;;;;;;;;10249195;28;20499;-84
